createdAt,value
2023-03-26T04:00:36.812Z,95.31
2023-03-26T04:01:38.463Z,95.31
2023-03-26T04:02:37.881Z,95.42
2023-03-26T04:03:37.951Z,95.67
2023-03-26T04:04:37.844Z,95.56
2023-03-26T04:05:37.812Z,95.52
2023-03-26T04:06:37.747Z,95.73
2023-03-26T04:07:37.750Z,95.87
2023-03-26T04:08:37.746Z,95.62
2023-03-26T04:09:37.742Z,95.83
2023-03-26T04:10:37.719Z,96.18
2023-03-26T04:11:37.690Z,96.28
2023-03-26T04:12:37.698Z,96.18
2023-03-26T04:13:37.676Z,95.98
2023-03-26T04:14:37.682Z,95.98
2023-03-26T04:15:37.735Z,96.18
2023-03-26T04:16:37.887Z,96.28
2023-03-26T04:17:37.681Z,96.49
2023-03-26T04:18:37.622Z,96.49
2023-03-26T04:19:37.652Z,96.70
2023-03-26T04:20:38.140Z,96.70
2023-03-26T04:21:37.613Z,96.39
2023-03-26T04:22:37.601Z,96.28
2023-03-26T04:23:37.587Z,96.59
2023-03-26T04:24:37.554Z,96.49
2023-03-26T04:25:37.503Z,96.59
2023-03-26T04:26:37.587Z,96.49
2023-03-26T04:27:37.537Z,96.80
2023-03-26T04:28:38.239Z,97.01
2023-03-26T04:29:37.455Z,97.11
2023-03-26T04:30:37.437Z,97.01
2023-03-26T04:31:37.538Z,97.01
2023-03-26T04:32:37.446Z,96.91
2023-03-26T04:33:37.417Z,96.70
2023-03-26T04:34:37.474Z,96.91
2023-03-26T04:35:37.422Z,96.39
2023-03-26T04:36:37.391Z,96.70
2023-03-26T04:37:37.441Z,96.80
2023-03-26T04:38:37.360Z,96.91
2023-03-26T04:39:37.403Z,96.80
2023-03-26T04:40:37.363Z,97.01
2023-03-26T04:41:37.362Z,96.91
2023-03-26T04:42:37.323Z,96.70
2023-03-26T04:43:37.327Z,96.70
2023-03-26T04:44:37.300Z,96.80
2023-03-26T04:45:37.353Z,96.91
2023-03-26T04:46:37.307Z,96.91
2023-03-26T04:47:37.396Z,96.80
2023-03-26T04:48:37.307Z,96.59
2023-03-26T04:49:37.262Z,96.91
2023-03-26T04:50:37.264Z,96.84
2023-03-26T04:51:37.237Z,96.74
2023-03-26T04:52:37.252Z,96.53
2023-03-26T04:53:37.277Z,96.64
2023-03-26T04:54:37.244Z,96.53
2023-03-26T04:55:37.181Z,96.53
2023-03-26T04:56:37.217Z,96.84
2023-03-26T04:57:37.178Z,95.81
2023-03-26T04:58:37.173Z,96.23
2023-03-26T04:59:37.212Z,96.84
2023-03-26T05:00:37.166Z,97.16
2023-03-26T05:01:37.146Z,97.36
2023-03-26T05:02:37.128Z,97.56
2023-03-26T05:03:37.087Z,97.77
2023-03-26T05:04:37.127Z,97.88
2023-03-26T05:05:37.094Z,98.08
2023-03-26T05:06:37.049Z,98.29
2023-03-26T05:07:37.095Z,98.50
2023-03-26T05:08:37.048Z,98.50
2023-03-26T05:09:37.008Z,98.60
2023-03-26T05:10:37.014Z,98.50
2023-03-26T05:11:37.018Z,98.39
2023-03-26T05:12:37.014Z,98.60
2023-03-26T05:13:36.975Z,98.80
2023-03-26T05:14:36.982Z,98.50
2023-03-26T05:15:36.985Z,98.39
2023-03-26T05:16:36.977Z,98.08
2023-03-26T05:17:36.964Z,97.77
2023-03-26T05:18:36.969Z,97.73
2023-03-26T05:19:36.956Z,97.83
2023-03-26T05:20:37.010Z,97.63
2023-03-26T05:21:36.900Z,97.31
2023-03-26T05:22:38.151Z,97.21
2023-03-26T05:23:36.886Z,97.42
2023-03-26T05:24:36.880Z,97.21
2023-03-26T05:25:36.881Z,97.31
2023-03-26T05:26:36.932Z,96.80
2023-03-26T05:27:36.848Z,96.80
2023-03-26T05:28:36.841Z,96.91
2023-03-26T05:29:36.812Z,97.01
2023-03-26T05:30:36.831Z,96.80
2023-03-26T05:31:36.836Z,96.28
2023-03-26T05:32:36.864Z,96.28
2023-03-26T05:33:36.914Z,96.28
2023-03-26T05:34:36.767Z,96.39
2023-03-26T05:35:36.805Z,96.28
2023-03-26T05:36:36.760Z,96.18
2023-03-26T05:37:36.774Z,96.08
2023-03-26T05:38:36.795Z,96.18
2023-03-26T05:39:36.694Z,95.87
2023-03-26T05:40:36.764Z,95.87
2023-03-26T05:41:36.688Z,96.03
2023-03-26T05:42:36.694Z,95.25
2023-03-26T05:43:37.293Z,95.46
2023-03-26T05:44:36.688Z,95.25
2023-03-26T05:45:36.719Z,95.00
2023-03-26T05:46:36.759Z,94.90
2023-03-26T05:47:36.673Z,94.90
2023-03-26T05:48:36.606Z,94.59
2023-03-26T05:49:36.611Z,94.28
2023-03-26T05:50:36.607Z,94.38
2023-03-26T05:51:36.604Z,94.28
2023-03-26T05:52:36.566Z,93.77
2023-03-26T05:53:36.624Z,93.87
2023-03-26T05:54:36.543Z,93.98
2023-03-26T05:55:36.539Z,94.18
2023-03-26T05:56:36.572Z,94.08
2023-03-26T05:57:36.545Z,94.08
2023-03-26T05:58:36.533Z,93.98
2023-03-26T05:59:36.561Z,94.18
2023-03-26T06:00:36.489Z,94.08
2023-03-26T06:01:36.464Z,93.66
2023-03-26T06:02:36.513Z,93.87
2023-03-26T06:03:36.561Z,93.98
2023-03-26T06:04:36.576Z,93.87
2023-03-26T06:05:36.479Z,93.77
2023-03-26T06:06:36.432Z,93.56
2023-03-26T06:07:36.409Z,93.77
2023-03-26T06:08:36.424Z,93.87
2023-03-26T06:09:36.422Z,93.56
2023-03-26T06:10:36.399Z,93.77
2023-03-26T06:11:36.443Z,93.77
2023-03-26T06:12:36.349Z,93.56
2023-03-26T06:13:36.339Z,93.66
2023-03-26T06:14:36.338Z,93.56
2023-03-26T06:15:36.363Z,93.77
2023-03-26T06:16:36.444Z,94.38
2023-03-26T06:17:36.425Z,94.08
2023-03-26T06:18:36.393Z,93.98
2023-03-26T06:19:36.282Z,93.25
2023-03-26T06:20:36.260Z,93.31
2023-03-26T06:21:36.297Z,93.15
2023-03-26T06:22:36.318Z,92.33
2023-03-26T06:23:36.222Z,92.74
2023-03-26T06:24:36.265Z,92.94
2023-03-26T06:25:36.234Z,92.80
2023-03-26T06:26:36.225Z,92.08
2023-03-26T06:27:36.182Z,92.18
2023-03-26T06:28:36.191Z,92.18
2023-03-26T06:29:36.219Z,91.56
2023-03-26T06:30:36.207Z,91.25
2023-03-26T06:31:36.221Z,91.25
2023-03-26T06:32:36.211Z,90.84
2023-03-26T06:33:36.142Z,91.21
2023-03-26T06:34:36.112Z,91.15
2023-03-26T06:35:36.160Z,91.00
2023-03-26T06:36:36.147Z,91.21
2023-03-26T06:37:36.146Z,90.49
2023-03-26T06:38:36.077Z,90.18
2023-03-26T06:39:36.158Z,90.90
2023-03-26T06:40:36.049Z,90.73
2023-03-26T06:41:36.073Z,91.05
2023-03-26T06:43:08.989Z,91.66
2023-03-26T06:43:36.059Z,91.93
2023-03-26T06:44:36.012Z,91.52
2023-03-26T06:45:36.018Z,91.42
2023-03-26T06:46:36.069Z,91.77
2023-03-26T06:47:35.973Z,91.36
2023-03-26T06:48:36.086Z,91.25
2023-03-26T06:49:36.018Z,91.46
2023-03-26T06:50:35.997Z,91.05
2023-03-26T06:51:35.923Z,91.25
2023-03-26T06:52:35.921Z,91.77
2023-03-26T06:53:35.918Z,91.87
2023-03-26T06:54:35.932Z,92.18
2023-03-26T06:55:35.928Z,91.56
2023-03-26T06:56:35.936Z,90.64
2023-03-26T06:57:35.874Z,90.43
2023-03-26T06:58:35.868Z,90.18
2023-03-26T06:59:35.860Z,90.01
2023-03-26T07:00:35.879Z,90.18
2023-03-26T07:01:35.922Z,90.08
2023-03-26T07:02:35.893Z,90.08
2023-03-26T07:03:35.834Z,89.36
2023-03-26T07:04:35.867Z,89.77
2023-03-26T07:05:35.816Z,89.25
2023-03-26T07:06:35.791Z,88.64
2023-03-26T07:07:36.281Z,88.23
2023-03-26T07:08:35.987Z,87.92
2023-03-26T07:09:35.750Z,89.05
2023-03-26T07:10:35.775Z,88.53
2023-03-26T07:11:35.818Z,88.23
2023-03-26T07:12:35.745Z,88.02
2023-03-26T07:13:35.709Z,88.53
2023-03-26T07:14:35.722Z,88.08
2023-03-26T07:15:35.697Z,88.49
2023-03-26T07:16:35.817Z,88.08
2023-03-26T07:17:35.713Z,87.77
2023-03-26T07:18:35.674Z,87.77
2023-03-26T07:19:35.688Z,87.84
2023-03-26T07:20:35.646Z,87.52
2023-03-26T07:21:35.648Z,87.63
2023-03-26T07:22:36.102Z,86.40
2023-03-26T07:23:35.569Z,86.19
2023-03-26T07:24:35.608Z,87.12
2023-03-26T07:25:35.685Z,86.91
2023-03-26T07:26:35.567Z,88.04
2023-03-26T07:27:35.565Z,87.52
2023-03-26T07:28:35.609Z,87.94
2023-03-26T07:29:35.523Z,87.73
2023-03-26T07:30:35.515Z,85.98
2023-03-26T07:31:35.581Z,86.29
2023-03-26T07:32:35.516Z,86.80
2023-03-26T07:33:35.519Z,86.29
2023-03-26T07:34:35.514Z,86.70
2023-03-26T07:35:35.487Z,85.88
2023-03-26T07:36:35.450Z,85.88
2023-03-26T07:37:35.524Z,85.68
2023-03-26T07:38:35.467Z,85.78
2023-03-26T07:39:35.506Z,85.30
2023-03-26T07:40:35.496Z,85.41
2023-03-26T07:41:35.396Z,85.10
2023-03-26T07:42:35.373Z,84.99
2023-03-26T07:43:35.350Z,85.51
2023-03-26T07:44:35.905Z,85.82
2023-03-26T07:45:35.391Z,85.20
2023-03-26T07:46:35.369Z,85.92
2023-03-26T07:47:35.351Z,85.92
2023-03-26T07:48:35.313Z,84.38
2023-03-26T07:49:35.311Z,85.10
2023-03-26T07:50:35.308Z,84.79
2023-03-26T07:51:35.323Z,85.20
2023-03-26T07:52:35.301Z,85.10
2023-03-26T07:53:35.300Z,85.30
2023-03-26T07:54:35.311Z,85.51
2023-03-26T07:55:35.306Z,84.58
2023-03-26T07:56:35.293Z,84.38
2023-03-26T07:57:35.267Z,85.30
2023-03-26T07:58:35.274Z,84.69
2023-03-26T07:59:35.228Z,84.79
2023-03-26T08:00:35.355Z,85.20
2023-03-26T08:01:35.167Z,85.92
2023-03-26T08:02:35.217Z,85.57
2023-03-26T08:03:35.301Z,84.75
2023-03-26T08:04:35.236Z,83.41
2023-03-26T08:05:35.190Z,82.73
2023-03-26T08:06:35.178Z,83.55
2023-03-26T08:07:35.178Z,83.86
2023-03-26T08:08:35.091Z,82.93
2023-03-26T08:09:35.111Z,83.65
2023-03-26T08:10:35.088Z,83.25
2023-03-26T08:11:35.097Z,82.42
2023-03-26T08:12:35.140Z,83.04
2023-03-26T08:13:35.037Z,83.65
2023-03-26T08:14:35.045Z,83.65
2023-03-26T08:15:35.072Z,83.65
2023-03-26T08:16:35.372Z,83.76
2023-03-26T08:17:35.176Z,84.27
2023-03-26T08:18:36.308Z,84.07
2023-03-26T08:19:35.111Z,84.07
2023-03-26T08:20:35.061Z,82.73
2023-03-26T08:21:35.142Z,82.93
2023-03-26T08:22:35.045Z,83.45
2023-03-26T08:23:34.966Z,83.45
2023-03-26T08:24:35.025Z,83.97
2023-03-26T08:25:36.654Z,83.14
2023-03-26T08:26:35.031Z,82.21
2023-03-26T08:27:34.989Z,83.00
2023-03-26T08:28:34.990Z,83.11
2023-03-26T08:29:34.993Z,82.90
2023-03-26T08:30:34.892Z,83.41
2023-03-26T08:31:35.069Z,82.90
2023-03-26T08:32:34.982Z,82.28
2023-03-26T08:33:37.060Z,82.90
2023-03-26T08:34:34.859Z,83.00
2023-03-26T08:35:34.890Z,82.90
2023-03-26T08:36:34.826Z,83.20
2023-03-26T08:37:34.835Z,83.51
2023-03-26T08:38:34.859Z,83.20
2023-03-26T08:39:34.779Z,83.11
2023-03-26T08:40:34.760Z,82.86
2023-03-26T08:41:34.870Z,83.11
2023-03-26T08:42:34.776Z,83.37
2023-03-26T08:43:34.777Z,83.06
2023-03-26T08:44:34.771Z,83.06
2023-03-26T08:45:34.762Z,82.65
2023-03-26T08:46:34.739Z,82.76
2023-03-26T08:47:34.707Z,82.86
2023-03-26T08:48:34.711Z,82.65
2023-03-26T08:49:34.673Z,82.79
2023-03-26T08:50:34.703Z,83.41
2023-03-26T08:51:34.688Z,83.41
2023-03-26T08:52:34.617Z,83.51
2023-03-26T08:53:34.628Z,83.78
2023-03-26T08:54:34.679Z,83.58
2023-03-26T08:55:34.615Z,83.17
2023-03-26T08:56:34.619Z,82.10
2023-03-26T08:57:34.560Z,82.34
2023-03-26T08:58:34.673Z,82.51
2023-03-26T08:59:34.570Z,81.18
2023-03-26T09:00:34.532Z,79.84
2023-03-26T09:01:34.618Z,81.07
2023-03-26T09:02:34.546Z,81.90
2023-03-26T09:03:34.549Z,81.34
2023-03-26T09:04:34.472Z,80.52
2023-03-26T09:05:34.601Z,80.66
2023-03-26T09:06:34.464Z,80.15
2023-03-26T09:07:34.464Z,80.56
2023-03-26T09:08:34.477Z,80.46
2023-03-26T09:09:34.488Z,81.07
2023-03-26T09:10:34.473Z,81.48
2023-03-26T09:11:34.461Z,80.66
2023-03-26T09:12:34.529Z,80.35
2023-03-26T09:13:34.414Z,81.28
2023-03-26T09:14:34.407Z,81.79
2023-03-26T09:15:34.383Z,81.07
2023-03-26T09:16:34.412Z,80.56
2023-03-26T09:17:34.346Z,80.35
2023-03-26T09:18:34.362Z,80.56
2023-03-26T09:19:34.321Z,80.35
2023-03-26T09:20:34.320Z,80.63
2023-03-26T09:21:34.342Z,79.80
2023-03-26T09:22:34.339Z,79.91
2023-03-26T09:23:34.331Z,79.60
2023-03-26T09:24:34.294Z,79.15
2023-03-26T09:25:34.278Z,78.74
2023-03-26T09:26:34.260Z,78.74
2023-03-26T09:27:34.656Z,78.33
2023-03-26T09:28:34.258Z,77.47
2023-03-26T09:29:34.210Z,76.86
2023-03-26T09:30:34.229Z,76.45
2023-03-26T09:31:34.225Z,76.24
2023-03-26T09:32:34.210Z,76.17
2023-03-26T09:33:34.307Z,76.38
2023-03-26T09:34:34.155Z,76.55
2023-03-26T09:35:34.215Z,76.24
2023-03-26T09:36:34.150Z,76.04
2023-03-26T09:37:34.132Z,75.62
2023-03-26T09:38:34.120Z,75.42
2023-03-26T09:39:34.173Z,74.91
2023-03-26T09:40:34.115Z,75.45
2023-03-26T09:41:34.085Z,75.11
2023-03-26T09:42:34.094Z,74.80
2023-03-26T09:43:34.067Z,74.70
2023-03-26T09:44:34.056Z,75.11
2023-03-26T09:45:34.072Z,74.80
2023-03-26T09:46:34.032Z,74.08
2023-03-26T09:47:34.048Z,73.57
2023-03-26T09:48:34.010Z,73.36
2023-03-26T09:49:33.999Z,73.98
2023-03-26T09:50:34.006Z,73.68
2023-03-26T09:51:33.994Z,73.54
2023-03-26T09:52:33.990Z,73.74
2023-03-26T09:53:33.976Z,73.13
2023-03-26T09:54:33.980Z,72.92
2023-03-26T09:55:33.937Z,72.51
2023-03-26T09:56:33.963Z,71.83
2023-03-26T09:57:33.941Z,72.41
2023-03-26T09:58:33.952Z,72.75
2023-03-26T09:59:33.975Z,72.61
2023-03-26T10:00:33.888Z,72.72
2023-03-26T10:01:33.933Z,71.80
2023-03-26T10:02:45.995Z,72.68
2023-03-26T10:03:33.904Z,71.45
2023-03-26T10:04:33.862Z,71.59
2023-03-26T10:05:33.853Z,71.69
2023-03-26T10:06:33.813Z,70.97
2023-03-26T10:07:33.876Z,71.28
2023-03-26T10:08:33.807Z,71.69
2023-03-26T10:09:33.785Z,71.76
2023-03-26T10:10:33.786Z,71.69
2023-03-26T10:11:33.794Z,71.15
2023-03-26T10:12:33.789Z,71.35
2023-03-26T10:13:33.780Z,71.35
2023-03-26T10:14:33.714Z,71.25
2023-03-26T10:15:33.730Z,71.97
2023-03-26T10:16:33.798Z,72.27
2023-03-26T10:17:33.809Z,72.24
2023-03-26T10:18:33.690Z,74.43
2023-03-26T10:19:33.678Z,76.07
2023-03-26T10:20:33.705Z,76.89
2023-03-26T10:21:33.650Z,78.36
2023-03-26T10:22:33.651Z,78.42
2023-03-26T10:23:33.658Z,77.23
2023-03-26T10:24:33.625Z,78.42
2023-03-26T10:25:33.608Z,75.86
2023-03-26T10:26:33.764Z,75.56
2023-03-26T10:27:33.603Z,76.17
2023-03-26T10:28:33.589Z,75.76
2023-03-26T10:29:33.623Z,76.03
2023-03-26T10:30:33.582Z,77.16
2023-03-26T10:31:33.564Z,77.47
2023-03-26T10:32:33.609Z,77.20
2023-03-26T10:33:33.526Z,77.40
2023-03-26T10:34:33.535Z,79.08
2023-03-26T10:35:33.631Z,78.97
2023-03-26T10:36:33.545Z,78.36
2023-03-26T10:37:33.499Z,78.22
2023-03-26T10:38:33.467Z,76.82
2023-03-26T10:39:38.062Z,73.54
2023-03-26T10:40:33.465Z,72.48
2023-03-26T10:41:33.453Z,72.27
2023-03-26T10:42:33.426Z,72.17
2023-03-26T10:43:33.432Z,71.97
2023-03-26T10:44:33.390Z,71.97
2023-03-26T10:45:33.391Z,70.73
2023-03-26T10:46:33.433Z,71.04
2023-03-26T10:47:33.386Z,70.29
2023-03-26T10:48:33.361Z,70.43
2023-03-26T10:49:33.374Z,70.22
2023-03-26T10:50:33.339Z,70.46
2023-03-26T10:51:33.344Z,70.97
2023-03-26T10:52:33.307Z,71.15
2023-03-26T10:53:33.345Z,71.56
2023-03-26T10:54:33.338Z,70.43
2023-03-26T10:55:33.304Z,70.53
2023-03-26T10:56:33.293Z,70.73
2023-03-26T10:57:33.299Z,71.08
2023-03-26T10:58:48.398Z,71.59
2023-03-26T10:59:33.249Z,71.97
2023-03-26T11:00:33.251Z,71.25
2023-03-26T11:01:33.321Z,70.94
2023-03-26T11:02:33.249Z,71.25
2023-03-26T11:03:33.225Z,70.29
2023-03-26T11:04:33.184Z,69.68
2023-03-26T11:05:33.229Z,69.68
2023-03-26T11:06:33.167Z,69.68
2023-03-26T11:07:33.148Z,69.03
2023-03-26T11:08:33.159Z,68.21
2023-03-26T11:09:33.207Z,68.32
2023-03-26T11:10:33.112Z,68.41
2023-03-26T11:11:33.111Z,67.49
2023-03-26T11:12:33.094Z,68.52
2023-03-26T11:13:33.118Z,68.90
2023-03-26T11:14:35.227Z,67.33
2023-03-26T11:15:33.091Z,67.30
2023-03-26T11:16:33.048Z,66.35
2023-03-26T11:17:40.734Z,65.63
2023-03-26T11:18:33.034Z,65.63
2023-03-26T11:19:33.079Z,66.66
2023-03-26T11:20:33.031Z,66.04
2023-03-26T11:21:33.024Z,68.52
2023-03-26T11:22:33.008Z,70.06
2023-03-26T11:23:33.001Z,70.98
2023-03-26T11:24:32.974Z,71.80
2023-03-26T11:25:32.968Z,71.12
2023-03-26T11:26:32.961Z,71.94
2023-03-26T11:27:32.951Z,72.55
2023-03-26T11:28:32.931Z,72.34
2023-03-26T11:29:33.609Z,72.65
2023-03-26T11:30:33.507Z,73.36
2023-03-26T11:31:32.943Z,72.45
2023-03-26T11:32:32.888Z,70.88
2023-03-26T11:33:33.059Z,70.47
2023-03-26T11:34:32.871Z,70.81
2023-03-26T11:35:40.667Z,70.40
2023-03-26T11:36:32.866Z,71.25
2023-03-26T11:37:32.825Z,68.08
2023-03-26T11:38:32.855Z,67.97
2023-03-26T11:39:32.824Z,66.85
2023-03-26T11:40:32.811Z,67.16
2023-03-26T11:41:32.849Z,67.36
2023-03-26T11:42:33.016Z,67.46
2023-03-26T11:43:32.839Z,66.85
2023-03-26T11:44:32.747Z,66.61
2023-03-26T11:45:32.780Z,66.31
2023-03-26T11:46:33.806Z,66.31
2023-03-26T11:47:32.750Z,65.59
2023-03-26T11:48:32.721Z,66.41
2023-03-26T11:49:32.698Z,66.41
2023-03-26T11:50:32.736Z,66.13
2023-03-26T11:51:32.700Z,66.13
2023-03-26T11:52:32.673Z,65.31
2023-03-26T11:53:32.678Z,65.01
2023-03-26T11:54:32.675Z,66.03
2023-03-26T11:55:32.645Z,64.29
2023-03-26T11:56:32.701Z,64.60
2023-03-26T11:57:32.683Z,63.88
2023-03-26T11:58:32.593Z,64.53
2023-03-26T11:59:33.846Z,64.80
2023-03-26T12:00:32.576Z,64.70
2023-03-26T12:01:32.580Z,65.01
2023-03-26T12:02:33.006Z,65.52
2023-03-26T12:03:32.535Z,65.62
2023-03-26T12:04:32.645Z,65.08
2023-03-26T12:05:32.606Z,64.98
2023-03-26T12:06:32.545Z,64.98
2023-03-26T12:07:32.494Z,64.77
2023-03-26T12:08:32.572Z,65.08
2023-03-26T12:09:32.479Z,64.23
2023-03-26T12:10:32.485Z,64.33
2023-03-26T12:11:34.666Z,64.84
2023-03-26T12:12:32.442Z,64.03
2023-03-26T12:13:32.426Z,63.82
2023-03-26T12:14:32.437Z,63.10
2023-03-26T12:15:32.479Z,63.10
2023-03-26T12:16:32.516Z,62.90
2023-03-26T12:17:32.432Z,63.41
2023-03-26T12:18:32.374Z,62.08
2023-03-26T12:19:32.365Z,61.88
2023-03-26T12:20:32.422Z,62.29
2023-03-26T12:21:32.341Z,61.88
2023-03-26T12:22:32.355Z,61.67
2023-03-26T12:23:32.317Z,62.08
2023-03-26T12:24:32.329Z,61.77
2023-03-26T12:25:32.323Z,61.77
2023-03-26T12:26:32.339Z,61.57
2023-03-26T12:27:32.278Z,61.44
2023-03-26T12:28:32.270Z,61.51
2023-03-26T12:29:32.280Z,61.41
2023-03-26T12:30:32.263Z,61.05
2023-03-26T12:31:32.260Z,59.80
2023-03-26T12:32:43.451Z,59.49
2023-03-26T12:33:32.285Z,58.47
2023-03-26T12:34:32.239Z,58.39
2023-03-26T12:35:32.233Z,58.80
2023-03-26T12:36:32.186Z,59.21
2023-03-26T12:37:32.182Z,59.52
2023-03-26T12:38:32.190Z,59.00
2023-03-26T12:40:09.584Z,58.60
2023-03-26T12:40:32.145Z,59.00
2023-03-26T12:44:51.448Z,58.87
2023-03-26T12:45:02.421Z,59.18
2023-03-26T12:45:07.848Z,57.83
2023-03-26T12:47:56.432Z,57.73
2023-03-26T12:48:07.362Z,58.23
2023-03-26T12:48:13.706Z,56.45
2023-03-26T12:49:13.055Z,55.81
2023-03-26T12:50:12.860Z,55.58
2023-03-26T12:51:12.834Z,54.64
2023-03-26T12:52:12.840Z,54.64
2023-03-26T12:53:12.883Z,54.94
2023-03-26T12:54:12.801Z,56.29
2023-03-26T12:55:12.821Z,57.19
2023-03-26T12:56:12.795Z,57.17
2023-03-26T12:57:13.510Z,57.50
2023-03-26T12:58:13.299Z,57.60
2023-03-26T12:59:12.726Z,58.11
2023-03-26T13:00:12.732Z,59.12
2023-03-26T13:01:12.784Z,58.92
2023-03-26T13:02:12.763Z,58.31
2023-03-26T13:03:12.836Z,58.51
2023-03-26T13:04:12.718Z,57.78
2023-03-26T13:05:12.709Z,58.39
2023-03-26T13:06:12.671Z,57.17
2023-03-26T13:07:12.668Z,59.03
2023-03-26T13:08:12.657Z,57.73
2023-03-26T13:09:12.724Z,58.78
2023-03-26T13:10:12.645Z,59.21
2023-03-26T13:11:12.636Z,59.14
2023-03-26T13:12:12.616Z,59.95
2023-03-26T13:13:12.591Z,60.57
2023-03-26T13:14:12.582Z,59.52
2023-03-26T13:15:12.578Z,58.87
2023-03-26T13:16:12.579Z,59.28
2023-03-26T13:17:12.587Z,58.91
2023-03-26T13:18:12.554Z,59.62
2023-03-26T13:19:12.539Z,60.46
2023-03-26T13:20:12.654Z,60.26
2023-03-26T13:21:12.974Z,60.87
2023-03-26T13:22:12.496Z,61.08
2023-03-26T13:23:12.480Z,61.18
2023-03-26T13:24:13.044Z,61.58
2023-03-26T13:25:12.461Z,61.18
2023-03-26T13:26:12.459Z,61.08
2023-03-26T13:27:12.473Z,60.46
2023-03-26T13:28:12.460Z,60.97
2023-03-26T13:29:12.431Z,60.64
2023-03-26T13:30:12.428Z,60.77
2023-03-26T13:31:12.479Z,61.18
2023-03-26T13:32:12.391Z,62.51
2023-03-26T13:33:12.396Z,61.99
2023-03-26T13:34:12.382Z,61.49
2023-03-26T13:35:12.397Z,60.90
2023-03-26T13:36:23.248Z,60.49
2023-03-26T13:37:12.411Z,60.90
2023-03-26T13:38:12.316Z,61.31
2023-03-26T13:39:12.320Z,61.72
2023-03-26T13:40:12.347Z,61.51
2023-03-26T13:41:12.325Z,61.51
2023-03-26T13:42:12.282Z,61.82
2023-03-26T13:43:12.271Z,62.13
2023-03-26T13:44:12.260Z,61.41
2023-03-26T13:45:12.248Z,61.72
2023-03-26T13:46:12.265Z,61.99
2023-03-26T13:47:12.225Z,62.48
2023-03-26T13:48:12.206Z,61.66
2023-03-26T13:49:12.201Z,61.73
2023-03-26T13:50:12.235Z,61.19
2023-03-26T13:51:12.196Z,61.27
2023-03-26T13:52:12.184Z,60.55
2023-03-26T13:53:12.202Z,59.89
2023-03-26T13:54:12.149Z,59.45
2023-03-26T13:55:12.145Z,58.51
2023-03-26T13:56:12.157Z,57.39
2023-03-26T13:57:12.142Z,57.77
2023-03-26T13:58:12.151Z,55.78
2023-03-26T13:59:12.114Z,55.55
2023-03-26T14:00:12.101Z,55.58
2023-03-26T14:01:12.139Z,56.60
2023-03-26T14:02:12.068Z,55.55
2023-03-26T14:03:12.065Z,55.30
2023-03-26T14:04:12.090Z,56.09
2023-03-26T14:05:12.153Z,54.39
2023-03-26T14:06:12.033Z,53.27
2023-03-26T14:07:12.057Z,52.36
2023-03-26T14:08:11.994Z,53.50
2023-03-26T14:09:12.016Z,53.60
2023-03-26T14:10:11.975Z,53.63
2023-03-26T14:11:11.959Z,54.36
2023-03-26T14:12:20.992Z,55.33
2023-03-26T14:13:11.943Z,55.73
2023-03-26T14:14:11.930Z,55.33
2023-03-26T14:15:11.939Z,56.07
2023-03-26T14:16:11.948Z,56.45
2023-03-26T14:17:11.930Z,56.21
2023-03-26T14:18:11.885Z,54.16
2023-03-26T14:19:11.900Z,55.10
2023-03-26T14:20:11.896Z,55.30
2023-03-26T14:21:11.857Z,54.11
2023-03-26T14:22:11.864Z,53.06
2023-03-26T14:23:11.864Z,53.93
2023-03-26T14:24:11.854Z,53.60
2023-03-26T14:25:11.844Z,53.50
2023-03-26T14:26:11.804Z,53.47
2023-03-26T14:27:11.794Z,52.66
2023-03-26T14:28:11.826Z,52.56
2023-03-26T14:29:11.782Z,52.86
2023-03-26T14:30:11.743Z,53.19
2023-03-26T14:31:11.820Z,54.28
2023-03-26T14:32:11.763Z,56.37
2023-03-26T14:33:11.747Z,56.57
2023-03-26T14:34:11.715Z,56.57
2023-03-26T14:35:11.736Z,56.04
2023-03-26T14:36:11.711Z,54.77
2023-03-26T14:37:11.695Z,55.30
2023-03-26T14:38:11.688Z,55.63
2023-03-26T14:39:11.646Z,56.50
2023-03-26T14:40:11.647Z,57.01
2023-03-26T14:41:11.628Z,56.07
2023-03-26T14:42:11.679Z,56.04
2023-03-26T14:43:11.991Z,55.43
2023-03-26T14:44:11.629Z,55.73
2023-03-26T14:45:11.621Z,54.97
2023-03-26T14:46:11.604Z,54.26
2023-03-26T14:47:14.526Z,55.00
2023-03-26T14:48:11.754Z,56.07
2023-03-26T14:49:11.551Z,57.39
2023-03-26T14:50:11.540Z,56.01
2023-03-26T14:51:11.557Z,56.42
2023-03-26T14:52:11.770Z,55.48
2023-03-26T14:53:11.510Z,55.81
2023-03-26T14:54:11.530Z,56.60
2023-03-26T14:55:11.480Z,57.11
2023-03-26T14:56:12.452Z,57.85
2023-03-26T14:57:11.571Z,58.08
2023-03-26T14:58:11.482Z,58.28
2023-03-26T14:59:12.398Z,58.05
2023-03-26T15:00:11.451Z,57.95
2023-03-26T15:01:11.502Z,58.23
2023-03-26T15:02:11.508Z,57.18
2023-03-26T15:03:11.466Z,56.68
2023-03-26T15:04:11.415Z,56.68
2023-03-26T15:05:11.449Z,56.65
2023-03-26T15:06:11.369Z,55.91
2023-03-26T15:07:11.405Z,56.12
2023-03-26T15:08:11.360Z,56.52
2023-03-26T15:09:11.353Z,56.73
2023-03-26T15:10:11.364Z,56.82
2023-03-26T15:11:11.298Z,56.85
2023-03-26T15:12:12.430Z,57.26
2023-03-26T15:13:11.321Z,56.34
2023-03-26T15:14:11.329Z,55.81
2023-03-26T15:15:11.287Z,55.27
2023-03-26T15:16:11.297Z,54.79
2023-03-26T15:17:11.249Z,56.24
2023-03-26T15:18:11.241Z,56.55
2023-03-26T15:19:11.234Z,56.34
2023-03-26T15:20:11.263Z,56.21
2023-03-26T15:21:11.255Z,57.26
2023-03-26T15:22:11.197Z,57.06
2023-03-26T15:23:11.243Z,56.14
2023-03-26T15:24:11.202Z,56.47
2023-03-26T15:25:11.157Z,56.81
2023-03-26T15:26:11.168Z,56.37
2023-03-26T15:27:11.140Z,57.08
2023-03-26T15:28:11.180Z,56.14
2023-03-26T15:29:11.130Z,55.81
2023-03-26T15:30:11.119Z,55.94
2023-03-26T15:31:11.113Z,56.50
2023-03-26T15:32:11.077Z,57.44
2023-03-26T15:33:11.060Z,57.24
2023-03-26T15:34:11.110Z,57.54
2023-03-26T15:35:11.058Z,58.28
2023-03-26T15:36:11.050Z,58.41
2023-03-26T15:37:11.030Z,58.82
2023-03-26T15:38:11.021Z,59.66
2023-03-26T15:39:11.019Z,59.64
2023-03-26T15:40:11.003Z,59.20
2023-03-26T15:41:11.012Z,59.20
2023-03-26T15:42:10.989Z,58.89
2023-03-26T15:43:10.950Z,59.43
2023-03-26T15:44:24.813Z,59.87
2023-03-26T15:45:10.942Z,60.17
2023-03-26T15:46:11.228Z,60.07
2023-03-26T15:47:10.913Z,59.97
2023-03-26T15:48:11.620Z,60.07
2023-03-26T15:49:10.889Z,59.97
2023-03-26T15:50:10.914Z,60.41
2023-03-26T15:51:10.866Z,60.64
2023-03-26T15:52:10.970Z,61.05
2023-03-26T15:53:10.846Z,61.38
2023-03-26T15:54:10.842Z,62.17
2023-03-26T15:55:11.308Z,62.58
2023-03-26T15:56:10.872Z,62.17
2023-03-26T15:57:10.856Z,62.48
2023-03-26T15:58:10.790Z,61.97
2023-03-26T15:59:10.835Z,62.10
2023-03-26T16:00:10.783Z,62.30
2023-03-26T16:01:10.812Z,61.99
2023-03-26T16:02:10.745Z,62.61
2023-03-26T16:03:10.783Z,62.30
2023-03-26T16:04:10.752Z,62.51
2023-03-26T16:05:10.740Z,62.92
2023-03-26T16:06:10.716Z,63.02
2023-03-26T16:07:10.712Z,63.73
2023-03-26T16:08:10.681Z,63.32
2023-03-26T16:09:10.663Z,63.56
2023-03-26T16:10:10.729Z,63.96
2023-03-26T16:11:10.648Z,64.58
2023-03-26T16:12:10.622Z,64.58
2023-03-26T16:13:10.633Z,64.68
2023-03-26T16:14:10.642Z,65.30
2023-03-26T16:15:10.634Z,65.43
2023-03-26T16:16:10.647Z,65.12
2023-03-26T16:17:10.605Z,65.43
2023-03-26T16:18:10.639Z,64.71
2023-03-26T16:19:10.590Z,65.12
2023-03-26T16:20:10.537Z,65.22
2023-03-26T16:21:10.580Z,65.53
2023-03-26T16:22:10.567Z,64.30
2023-03-26T16:23:10.531Z,65.05
2023-03-26T16:24:10.518Z,65.36
2023-03-26T16:25:27.166Z,65.36
2023-03-26T16:26:10.513Z,65.15
2023-03-26T16:27:10.475Z,64.95
2023-03-26T16:28:10.521Z,65.05
2023-03-26T16:29:10.467Z,64.64
2023-03-26T16:30:10.446Z,64.95
2023-03-26T16:31:23.381Z,64.54
2023-03-26T16:32:11.026Z,65.25
2023-03-26T16:33:10.525Z,64.77
2023-03-26T16:34:10.398Z,64.26
2023-03-26T16:35:10.378Z,65.28
2023-03-26T16:36:10.520Z,65.28
2023-03-26T16:37:10.375Z,65.39
2023-03-26T16:38:10.392Z,64.57
2023-03-26T16:39:10.363Z,65.39
2023-03-26T16:40:10.370Z,64.98
2023-03-26T16:41:10.434Z,64.67
2023-03-26T16:42:10.401Z,64.87
2023-03-26T16:43:10.404Z,65.39
2023-03-26T16:44:10.313Z,65.90
2023-03-26T16:45:10.528Z,66.24
2023-03-26T16:46:10.395Z,65.39
2023-03-26T16:47:10.283Z,65.31
2023-03-26T16:48:10.251Z,65.62
2023-03-26T16:49:10.249Z,65.42
2023-03-26T16:50:10.225Z,65.31
2023-03-26T16:51:10.218Z,65.11
2023-03-26T16:52:10.225Z,65.93
2023-03-26T16:53:10.234Z,66.44
2023-03-26T16:54:10.219Z,65.83